Time;durP1;ratioP1;P1;durP2;ratioP2;P2;SDS_P1;SDS_P2;PMS_P1;PMS_P2;Temp;Humidity;BMP_temperature;BMP_pressure;BME280_temperature;BME280_humidity;BME280_pressure;Samples;Min_cycle;Max_cycle;Signal;HPM_P1;HPM_P2
2022/06/20 00:01:13;;;;;;;1.02;0.93;;;;;;;;;;4973790;28;20034;-88
2022/06/20 00:03:41;;;;;;;6.78;0.90;;;;;;;;;;4973119;28;21535;-90
2022/06/20 00:06:09;;;;;;;0.82;0.77;;;;;;;;;;4974290;28;20114;-87
2022/06/20 00:08:36;;;;;;;1.20;0.98;;;;;;;;;;4972993;28;20490;-87
2022/06/20 00:11:01;;;;;;;0.82;0.80;;;;;;;;;;4973311;28;20054;-87
2022/06/20 00:13:28;;;;;;;1.00;0.82;;;;;;;;;;4973111;28;20045;-87
2022/06/20 00:15:56;;;;;;;0.80;0.80;;;;;;;;;;4973237;28;20019;-87
2022/06/20 00:18:22;;;;;;;1.38;1.25;;;;;;;;;;4973961;28;20061;-87
2022/06/20 00:20:47;;;;;;;1.80;0.98;;;;;;;;;;4972873;28;20023;-87
2022/06/20 00:23:12;;;;;;;0.63;0.63;;;;;;;;;;4972841;28;20166;-87
2022/06/20 00:25:38;;;;;;;2.90;1.42;;;;;;;;;;4973112;28;20033;-87
2022/06/20 00:28:04;;;;;;;1.10;0.73;;;;;;;;;;4972947;28;20042;-87
2022/06/20 00:30:29;;;;;;;1.40;1.30;;;;;;;;;;4972827;28;20024;-87
2022/06/20 00:32:54;;;;;;;1.13;1.00;;;;;;;;;;4973291;28;20050;-87
2022/06/20 00:35:20;;;;;;;0.87;0.87;;;;;;;;;;4972875;28;20419;-87
2022/06/20 00:37:45;;;;;;;1.25;0.82;;;;;;;;;;4972616;28;20265;-87
2022/06/20 00:40:23;;;;;;;0.80;0.80;;;;;;;;;;4973001;28;20023;-88
2022/06/20 00:42:49;;;;;;;3.60;1.05;;;;;;;;;;4972702;28;20026;-86
2022/06/20 00:45:15;;;;;;;0.73;0.70;;;;;;;;;;4972569;28;20027;-87
2022/06/20 00:47:41;;;;;;;1.23;1.17;;;;;;;;;;4972680;28;20073;-88
2022/06/20 00:50:11;;;;;;;0.50;0.50;;;;;;;;;;4972697;28;20483;-87
2022/06/20 00:52:40;;;;;;;1.83;1.30;;;;;;;;;;4973186;28;20015;-88
2022/06/20 00:55:12;;;;;;;0.70;0.70;;;;;;;;;;4976387;28;20034;-87
2022/06/20 00:57:40;;;;;;;4.57;1.20;;;;;;;;;;4976455;28;20026;-87
2022/06/20 01:00:15;;;;;;;1.20;1.10;;;;;;;;;;4976027;28;20025;-87
2022/06/20 01:02:43;;;;;;;0.95;0.95;;;;;;;;;;4976883;28;20105;-88
2022/06/20 01:05:14;;;;;;;0.90;0.80;;;;;;;;;;4977909;28;20047;-88
2022/06/20 01:07:42;;;;;;;1.00;1.00;;;;;;;;;;4959961;28;20030;-88
2022/06/20 01:10:09;;;;;;;1.90;1.00;;;;;;;;;;4960163;28;20468;-88
2022/06/20 01:12:44;;;;;;;1.42;0.82;;;;;;;;;;4959938;28;20443;-87
2022/06/20 01:15:20;;;;;;;1.48;0.70;;;;;;;;;;4960030;28;20050;-88
2022/06/20 01:17:45;;;;;;;0.70;0.70;;;;;;;;;;4960400;28;20022;-88
2022/06/20 01:20:17;;;;;;;2.00;0.93;;;;;;;;;;4959809;28;20534;-88
2022/06/20 01:23:00;;;;;;;3.60;1.10;;;;;;;;;;4959649;28;20321;-87
2022/06/20 01:25:31;;;;;;;0.82;0.80;;;;;;;;;;4959810;28;20023;-88
2022/06/20 01:27:56;;;;;;;1.15;1.00;;;;;;;;;;4959678;28;20030;-88
2022/06/20 01:30:24;;;;;;;0.60;0.60;;;;;;;;;;4959961;28;20030;-88
2022/06/20 01:32:50;;;;;;;4.65;1.40;;;;;;;;;;4959664;28;20086;-88
2022/06/20 01:37:23;;;;;;;2.42;0.90;;;;;;;;;;4959617;28;20022;-88
2022/06/20 01:38:02;;;;;;;0.80;0.80;;;;;;;;;;4976430;28;20057;-88
2022/06/20 01:40:28;;;;;;;0.80;0.80;;;;;;;;;;4959566;28;20494;-88
2022/06/20 01:42:53;;;;;;;2.20;0.82;;;;;;;;;;4959716;28;20023;-88
2022/06/20 01:48:23;;;;;;;2.15;0.93;;;;;;;;;;4976789;28;20036;-88
2022/06/20 01:50:48;;;;;;;0.80;0.80;;;;;;;;;;4958170;28;20031;-87
2022/06/20 01:53:16;;;;;;;1.13;0.70;;;;;;;;;;4959340;28;20031;-89
2022/06/20 01:55:43;;;;;;;0.70;0.70;;;;;;;;;;4959293;28;20258;-88
2022/06/20 01:58:10;;;;;;;1.03;0.97;;;;;;;;;;4959154;28;20078;-88
2022/06/20 02:00:36;;;;;;;1.65;1.05;;;;;;;;;;4959017;28;20258;-88
2022/06/20 02:03:11;;;;;;;0.70;0.70;;;;;;;;;;4959288;28;20023;-88
2022/06/20 02:05:36;;;;;;;1.10;1.00;;;;;;;;;;4974383;28;20050;-88
2022/06/20 02:08:03;;;;;;;0.80;0.80;;;;;;;;;;4975146;28;20165;-88
2022/06/20 02:10:31;;;;;;;1.40;0.90;;;;;;;;;;4975583;28;20050;-88
2022/06/20 02:12:58;;;;;;;3.88;0.65;;;;;;;;;;4975185;28;20015;-88
2022/06/20 02:15:24;;;;;;;1.38;1.00;;;;;;;;;;4976232;28;20023;-88
2022/06/20 02:17:50;;;;;;;2.42;1.40;;;;;;;;;;4975280;28;20030;-89
2022/06/20 02:20:18;;;;;;;1.90;0.95;;;;;;;;;;4976421;28;20478;-88
2022/06/20 02:22:44;;;;;;;1.08;0.90;;;;;;;;;;4975125;28;20022;-87
2022/06/20 02:25:12;;;;;;;2.13;1.83;;;;;;;;;;4975774;28;20031;-87
2022/06/20 02:27:38;;;;;;;0.90;0.90;;;;;;;;;;4975294;28;20069;-87
2022/06/20 02:30:04;;;;;;;10.60;1.13;;;;;;;;;;4975103;28;20487;-88
2022/06/20 02:32:33;;;;;;;0.73;0.73;;;;;;;;;;4975221;28;20018;-87
2022/06/20 02:34:58;;;;;;;4.15;0.80;;;;;;;;;;4974880;28;20051;-87
2022/06/20 02:37:25;;;;;;;1.88;1.05;;;;;;;;;;4975118;28;20121;-87
2022/06/20 02:39:53;;;;;;;2.70;1.20;;;;;;;;;;4974747;28;20027;-87
2022/06/20 02:42:19;;;;;;;;;;;;;;;;;;4975303;28;20057;-88
2022/06/20 02:44:46;;;;;;;0.68;0.68;;;;;;;;;;4974470;28;19933;-87
2022/06/20 02:47:13;;;;;;;0.77;0.77;;;;;;;;;;4974177;28;20185;-88
2022/06/20 02:49:39;;;;;;;1.58;1.35;;;;;;;;;;4974603;28;20022;-88
2022/06/20 02:52:05;;;;;;;3.53;0.98;;;;;;;;;;4975429;28;20022;-88
2022/06/20 02:54:32;;;;;;;1.40;0.77;;;;;;;;;;4974342;28;20019;-87
2022/06/20 02:57:01;;;;;;;1.42;1.33;;;;;;;;;;4975036;28;20455;-87
2022/06/20 02:59:28;;;;;;;1.00;0.98;;;;;;;;;;4974386;28;20053;-88
2022/06/20 03:01:54;;;;;;;0.63;0.63;;;;;;;;;;4974133;28;20023;-88
2022/06/20 03:04:21;;;;;;;1.08;0.82;;;;;;;;;;4974069;28;20053;-88
2022/06/20 03:06:51;;;;;;;1.08;1.02;;;;;;;;;;4975520;28;20023;-88
2022/06/20 03:09:18;;;;;;;12.32;0.90;;;;;;;;;;4974181;28;20026;-88
2022/06/20 03:11:43;;;;;;;8.18;1.23;;;;;;;;;;4974083;28;20057;-88
2022/06/20 03:14:13;;;;;;;1.05;0.95;;;;;;;;;;4974087;28;20486;-88
2022/06/20 03:16:39;;;;;;;4.85;0.90;;;;;;;;;;4973928;28;20084;-87
2022/06/20 03:19:06;;;;;;;5.95;1.10;;;;;;;;;;4974036;28;20117;-88
2022/06/20 03:21:35;;;;;;;1.53;0.90;;;;;;;;;;4973741;28;20057;-88
2022/06/20 03:24:01;;;;;;;0.85;0.85;;;;;;;;;;4973784;28;20604;-88
2022/06/20 03:26:27;;;;;;;0.95;0.95;;;;;;;;;;4973799;28;20030;-87
2022/06/20 03:28:53;;;;;;;1.33;1.15;;;;;;;;;;4973673;28;20022;-87
2022/06/20 03:31:19;;;;;;;1.45;0.90;;;;;;;;;;4973991;28;20050;-87
2022/06/20 03:33:45;;;;;;;0.82;0.82;;;;;;;;;;4973805;28;20027;-87
2022/06/20 03:36:13;;;;;;;1.23;1.13;;;;;;;;;;4973807;28;20403;-89
2022/06/20 03:38:39;;;;;;;0.85;0.80;;;;;;;;;;4973643;28;20071;-88
2022/06/20 03:41:05;;;;;;;2.80;1.27;;;;;;;;;;4973645;28;20475;-88
2022/06/20 03:43:32;;;;;;;1.25;0.85;;;;;;;;;;4973587;28;20068;-89
2022/06/20 03:46:05;;;;;;;0.50;0.50;;;;;;;;;;4973662;28;20113;-88
2022/06/20 03:48:40;;;;;;;1.35;1.10;;;;;;;;;;4973885;28;20897;-89
2022/06/20 03:51:09;;;;;;;0.45;0.45;;;;;;;;;;4974659;28;20022;-88
2022/06/20 03:53:41;;;;;;;0.85;0.70;;;;;;;;;;4973588;28;20071;-88
2022/06/20 03:56:13;;;;;;;0.73;0.70;;;;;;;;;;4973604;28;20025;-88
2022/06/20 03:58:48;;;;;;;0.75;0.70;;;;;;;;;;4973476;28;20491;-88
2022/06/20 04:01:37;;;;;;;0.50;0.50;;;;;;;;;;4973223;28;20022;-88
2022/06/20 04:04:31;;;;;;;1.00;0.85;;;;;;;;;;4973206;28;20069;-87
2022/06/20 04:06:59;;;;;;;3.50;0.80;;;;;;;;;;4952168;28;20066;-89
2022/06/20 04:12:22;;;;;;;1.42;1.33;;;;;;;;;;4974190;28;20041;-89
2022/06/20 04:14:52;;;;;;;0.60;0.60;;;;;;;;;;4973074;28;20019;-89
2022/06/20 04:20:15;;;;;;;0.60;0.60;;;;;;;;;;4973970;28;20045;-88
2022/06/20 04:22:41;;;;;;;0.70;0.50;;;;;;;;;;4973025;28;20023;-87
2022/06/20 04:25:19;;;;;;;0.50;0.50;;;;;;;;;;4972230;28;20422;-88
2022/06/20 04:27:48;;;;;;;10.77;0.88;;;;;;;;;;4974717;28;20026;-87
2022/06/20 04:30:19;;;;;;;0.73;0.73;;;;;;;;;;4976291;28;20058;-87
2022/06/20 04:32:48;;;;;;;0.63;0.60;;;;;;;;;;4976441;28;20026;-86
2022/06/20 04:35:13;;;;;;;0.68;0.68;;;;;;;;;;4975870;28;20410;-85
2022/06/20 04:37:43;;;;;;;0.70;0.70;;;;;;;;;;4976020;28;20035;-83
